sensor_id;sensor_type;location;lat;lon;timestamp;temperature;humidity
24260;DHT22;12384;48.112;18.418;2023-02-11T00:01:23;-1.60;49.40
24260;DHT22;12384;48.112;18.418;2023-02-11T00:03:53;-1.70;49.40
24260;DHT22;12384;48.112;18.418;2023-02-11T00:06:21;-1.60;49.50
24260;DHT22;12384;48.112;18.418;2023-02-11T00:08:50;-1.70;49.50
24260;DHT22;12384;48.112;18.418;2023-02-11T00:11:20;-1.70;49.50
24260;DHT22;12384;48.112;18.418;2023-02-11T00:13:50;-1.70;49.50
24260;DHT22;12384;48.112;18.418;2023-02-11T00:16:19;-1.70;49.60
24260;DHT22;12384;48.112;18.418;2023-02-11T00:18:48;-1.70;49.60
24260;DHT22;12384;48.112;18.418;2023-02-11T00:21:20;-1.70;49.60
24260;DHT22;12384;48.112;18.418;2023-02-11T00:23:50;-1.70;49.60
24260;DHT22;12384;48.112;18.418;2023-02-11T00:26:20;-1.70;49.60
24260;DHT22;12384;48.112;18.418;2023-02-11T00:28:51;-1.70;49.60
24260;DHT22;12384;48.112;18.418;2023-02-11T00:31:21;-1.70;49.60
24260;DHT22;12384;48.112;18.418;2023-02-11T00:33:50;-1.70;49.60
24260;DHT22;12384;48.112;18.418;2023-02-11T00:36:21;-1.70;49.60
24260;DHT22;12384;48.112;18.418;2023-02-11T00:38:51;-1.80;49.60
24260;DHT22;12384;48.112;18.418;2023-02-11T00:41:19;-1.80;49.60
24260;DHT22;12384;48.112;18.418;2023-02-11T00:43:50;-1.80;49.60
24260;DHT22;12384;48.112;18.418;2023-02-11T00:46:18;-1.80;49.70
24260;DHT22;12384;48.112;18.418;2023-02-11T00:48:47;-1.80;49.70
24260;DHT22;12384;48.112;18.418;2023-02-11T00:51:20;-1.80;49.70
24260;DHT22;12384;48.112;18.418;2023-02-11T00:53:49;-1.90;49.60
24260;DHT22;12384;48.112;18.418;2023-02-11T00:56:18;-1.90;49.60
24260;DHT22;12384;48.112;18.418;2023-02-11T00:58:47;-1.90;49.70
24260;DHT22;12384;48.112;18.418;2023-02-11T01:01:18;-1.90;49.70
24260;DHT22;12384;48.112;18.418;2023-02-11T01:03:46;-2.00;49.70
24260;DHT22;12384;48.112;18.418;2023-02-11T01:06:15;-2.00;49.70
24260;DHT22;12384;48.112;18.418;2023-02-11T01:08:43;-2.00;49.80
24260;DHT22;12384;48.112;18.418;2023-02-11T01:11:14;-2.00;49.80
24260;DHT22;12384;48.112;18.418;2023-02-11T01:13:45;-2.10;49.70
24260;DHT22;12384;48.112;18.418;2023-02-11T01:16:17;-2.10;49.70
24260;DHT22;12384;48.112;18.418;2023-02-11T01:18:46;-2.10;49.80
24260;DHT22;12384;48.112;18.418;2023-02-11T01:21:16;-2.20;49.70
24260;DHT22;12384;48.112;18.418;2023-02-11T01:23:45;-2.20;49.80
24260;DHT22;12384;48.112;18.418;2023-02-11T01:26:13;-2.20;49.80
24260;DHT22;12384;48.112;18.418;2023-02-11T01:28:42;-2.30;49.80
24260;DHT22;12384;48.112;18.418;2023-02-11T01:31:10;-2.30;49.90
24260;DHT22;12384;48.112;18.418;2023-02-11T01:33:40;-2.30;50.00
24260;DHT22;12384;48.112;18.418;2023-02-11T01:36:10;-2.40;50.00
24260;DHT22;12384;48.112;18.418;2023-02-11T01:38:39;-2.40;50.00
24260;DHT22;12384;48.112;18.418;2023-02-11T01:41:09;-2.40;50.10
24260;DHT22;12384;48.112;18.418;2023-02-11T01:43:40;-2.50;50.00
24260;DHT22;12384;48.112;18.418;2023-02-11T01:46:20;-2.50;50.10
24260;DHT22;12384;48.112;18.418;2023-02-11T01:48:54;-2.50;50.10
24260;DHT22;12384;48.112;18.418;2023-02-11T01:51:28;-2.60;50.10
24260;DHT22;12384;48.112;18.418;2023-02-11T01:53:59;-2.60;50.00
24260;DHT22;12384;48.112;18.418;2023-02-11T01:56:49;-2.60;50.10
24260;DHT22;12384;48.112;18.418;2023-02-11T01:59:40;-2.70;50.20
24260;DHT22;12384;48.112;18.418;2023-02-11T02:02:12;-2.70;50.30
24260;DHT22;12384;48.112;18.418;2023-02-11T02:04:49;-2.80;50.40
24260;DHT22;12384;48.112;18.418;2023-02-11T02:07:27;-2.80;50.40
24260;DHT22;12384;48.112;18.418;2023-02-11T02:09:59;-2.80;50.60
24260;DHT22;12384;48.112;18.418;2023-02-11T02:12:30;-2.90;50.60
24260;DHT22;12384;48.112;18.418;2023-02-11T02:15:18;-2.90;50.80
24260;DHT22;12384;48.112;18.418;2023-02-11T02:17:56;-2.90;50.90
24260;DHT22;12384;48.112;18.418;2023-02-11T02:21:04;-2.90;51.30
24260;DHT22;12384;48.112;18.418;2023-02-11T02:23:50;-2.90;51.70
24260;DHT22;12384;48.112;18.418;2023-02-11T02:32:42;-2.90;51.60
24260;DHT22;12384;48.112;18.418;2023-02-11T02:35:22;-2.90;51.80
24260;DHT22;12384;48.112;18.418;2023-02-11T02:37:56;-2.90;51.80
24260;DHT22;12384;48.112;18.418;2023-02-11T02:40:30;-2.90;51.70
24260;DHT22;12384;48.112;18.418;2023-02-11T02:43:00;-3.00;52.00
24260;DHT22;12384;48.112;18.418;2023-02-11T02:45:29;-3.00;51.90
24260;DHT22;12384;48.112;18.418;2023-02-11T02:47:59;-3.00;51.70
24260;DHT22;12384;48.112;18.418;2023-02-11T02:50:30;-3.00;51.60
24260;DHT22;12384;48.112;18.418;2023-02-11T02:53:13;-3.00;51.80
24260;DHT22;12384;48.112;18.418;2023-02-11T02:56:00;-3.10;51.80
24260;DHT22;12384;48.112;18.418;2023-02-11T02:59:01;-3.10;51.70
24260;DHT22;12384;48.112;18.418;2023-02-11T03:01:38;-3.10;51.70
24260;DHT22;12384;48.112;18.418;2023-02-11T03:04:16;-3.10;51.70
24260;DHT22;12384;48.112;18.418;2023-02-11T03:06:51;-3.20;51.60
24260;DHT22;12384;48.112;18.418;2023-02-11T03:09:26;-3.20;51.90
24260;DHT22;12384;48.112;18.418;2023-02-11T03:11:55;-3.20;51.90
24260;DHT22;12384;48.112;18.418;2023-02-11T03:14:24;-3.20;52.00
24260;DHT22;12384;48.112;18.418;2023-02-11T03:16:55;-3.30;51.80
24260;DHT22;12384;48.112;18.418;2023-02-11T03:19:28;-3.30;51.70
24260;DHT22;12384;48.112;18.418;2023-02-11T03:21:57;-3.30;51.90
24260;DHT22;12384;48.112;18.418;2023-02-11T03:24:30;-3.30;52.20
24260;DHT22;12384;48.112;18.418;2023-02-11T03:27:05;-3.30;52.20
24260;DHT22;12384;48.112;18.418;2023-02-11T03:29:39;-3.40;51.90
24260;DHT22;12384;48.112;18.418;2023-02-11T03:32:13;-3.40;51.90
24260;DHT22;12384;48.112;18.418;2023-02-11T03:34:48;-3.40;51.80
24260;DHT22;12384;48.112;18.418;2023-02-11T03:37:20;-3.50;51.60
24260;DHT22;12384;48.112;18.418;2023-02-11T03:39:53;-3.50;51.60
24260;DHT22;12384;48.112;18.418;2023-02-11T03:42:25;-3.50;51.70
24260;DHT22;12384;48.112;18.418;2023-02-11T03:44:58;-3.60;51.60
24260;DHT22;12384;48.112;18.418;2023-02-11T03:47:34;-3.60;51.60
24260;DHT22;12384;48.112;18.418;2023-02-11T03:50:07;-3.60;51.70
24260;DHT22;12384;48.112;18.418;2023-02-11T03:52:37;-3.60;51.70
24260;DHT22;12384;48.112;18.418;2023-02-11T03:55:10;-3.60;51.80
24260;DHT22;12384;48.112;18.418;2023-02-11T03:57:39;-3.60;51.80
24260;DHT22;12384;48.112;18.418;2023-02-11T04:00:09;-3.70;52.30
24260;DHT22;12384;48.112;18.418;2023-02-11T04:02:39;-3.70;51.60
24260;DHT22;12384;48.112;18.418;2023-02-11T04:05:14;-3.70;51.60
24260;DHT22;12384;48.112;18.418;2023-02-11T04:07:43;-3.70;51.60
24260;DHT22;12384;48.112;18.418;2023-02-11T04:10:11;-3.80;51.60
24260;DHT22;12384;48.112;18.418;2023-02-11T04:12:40;-3.80;51.60
24260;DHT22;12384;48.112;18.418;2023-02-11T04:15:08;-3.80;51.70
24260;DHT22;12384;48.112;18.418;2023-02-11T04:17:37;-3.90;51.60
24260;DHT22;12384;48.112;18.418;2023-02-11T04:20:06;-3.90;51.70
24260;DHT22;12384;48.112;18.418;2023-02-11T04:22:36;-3.90;51.70
24260;DHT22;12384;48.112;18.418;2023-02-11T04:25:05;-3.90;51.80
24260;DHT22;12384;48.112;18.418;2023-02-11T04:27:34;-4.00;51.90
24260;DHT22;12384;48.112;18.418;2023-02-11T04:30:04;-4.00;52.10
24260;DHT22;12384;48.112;18.418;2023-02-11T04:32:32;-4.00;52.10
24260;DHT22;12384;48.112;18.418;2023-02-11T04:35:01;-4.00;52.20
24260;DHT22;12384;48.112;18.418;2023-02-11T04:37:30;-4.00;52.20
24260;DHT22;12384;48.112;18.418;2023-02-11T04:39:59;-4.10;52.30
24260;DHT22;12384;48.112;18.418;2023-02-11T04:42:28;-4.10;52.40
24260;DHT22;12384;48.112;18.418;2023-02-11T04:44:56;-4.10;52.40
24260;DHT22;12384;48.112;18.418;2023-02-11T04:47:25;-4.10;52.40
24260;DHT22;12384;48.112;18.418;2023-02-11T04:49:53;-4.10;52.40
24260;DHT22;12384;48.112;18.418;2023-02-11T04:52:22;-4.10;52.40
24260;DHT22;12384;48.112;18.418;2023-02-11T04:54:50;-4.10;52.40
24260;DHT22;12384;48.112;18.418;2023-02-11T04:57:19;-4.10;52.40
24260;DHT22;12384;48.112;18.418;2023-02-11T04:59:48;-4.10;52.40
24260;DHT22;12384;48.112;18.418;2023-02-11T05:02:16;-4.10;52.40
24260;DHT22;12384;48.112;18.418;2023-02-11T05:04:45;-4.10;52.40
24260;DHT22;12384;48.112;18.418;2023-02-11T05:07:13;-4.10;52.50
24260;DHT22;12384;48.112;18.418;2023-02-11T05:09:42;-4.10;52.50
24260;DHT22;12384;48.112;18.418;2023-02-11T05:12:10;-4.10;52.50
24260;DHT22;12384;48.112;18.418;2023-02-11T05:14:40;-4.10;52.60
24260;DHT22;12384;48.112;18.418;2023-02-11T05:17:08;-4.10;52.60
24260;DHT22;12384;48.112;18.418;2023-02-11T05:19:37;-4.10;52.70
24260;DHT22;12384;48.112;18.418;2023-02-11T05:22:05;-4.10;52.70
24260;DHT22;12384;48.112;18.418;2023-02-11T05:24:34;-4.10;52.70
24260;DHT22;12384;48.112;18.418;2023-02-11T05:27:02;-4.10;52.80
24260;DHT22;12384;48.112;18.418;2023-02-11T05:29:31;-4.10;52.70
24260;DHT22;12384;48.112;18.418;2023-02-11T05:32:00;-4.10;52.70
24260;DHT22;12384;48.112;18.418;2023-02-11T05:34:29;-4.10;52.70
24260;DHT22;12384;48.112;18.418;2023-02-11T05:36:57;-4.20;53.10
24260;DHT22;12384;48.112;18.418;2023-02-11T05:39:26;-4.20;52.60
24260;DHT22;12384;48.112;18.418;2023-02-11T05:41:54;-4.20;52.60
24260;DHT22;12384;48.112;18.418;2023-02-11T05:44:22;-4.20;52.70
24260;DHT22;12384;48.112;18.418;2023-02-11T05:46:51;-4.20;52.80
24260;DHT22;12384;48.112;18.418;2023-02-11T05:49:21;-4.20;52.90
24260;DHT22;12384;48.112;18.418;2023-02-11T05:51:49;-4.20;53.10
24260;DHT22;12384;48.112;18.418;2023-02-11T05:54:17;-4.20;53.10
24260;DHT22;12384;48.112;18.418;2023-02-11T05:56:46;-4.10;53.20
24260;DHT22;12384;48.112;18.418;2023-02-11T05:59:14;-4.10;53.20
24260;DHT22;12384;48.112;18.418;2023-02-11T06:01:43;-4.10;53.30
24260;DHT22;12384;48.112;18.418;2023-02-11T06:04:11;-4.10;53.40
24260;DHT22;12384;48.112;18.418;2023-02-11T06:06:41;-4.00;53.50
24260;DHT22;12384;48.112;18.418;2023-02-11T06:09:09;-4.00;53.50
24260;DHT22;12384;48.112;18.418;2023-02-11T06:11:38;-4.00;53.60
24260;DHT22;12384;48.112;18.418;2023-02-11T06:14:06;-3.90;53.60
24260;DHT22;12384;48.112;18.418;2023-02-11T06:16:36;-3.80;53.80
24260;DHT22;12384;48.112;18.418;2023-02-11T06:19:04;-3.80;53.90
24260;DHT22;12384;48.112;18.418;2023-02-11T06:21:33;-3.70;54.00
24260;DHT22;12384;48.112;18.418;2023-02-11T06:24:11;-3.60;54.10
24260;DHT22;12384;48.112;18.418;2023-02-11T06:26:40;-3.50;54.20
24260;DHT22;12384;48.112;18.418;2023-02-11T06:29:08;-3.40;54.30
24260;DHT22;12384;48.112;18.418;2023-02-11T06:31:37;-3.40;54.30
24260;DHT22;12384;48.112;18.418;2023-02-11T06:34:07;-3.30;54.40
24260;DHT22;12384;48.112;18.418;2023-02-11T06:36:37;-3.10;54.50
24260;DHT22;12384;48.112;18.418;2023-02-11T06:39:07;-3.10;54.60
24260;DHT22;12384;48.112;18.418;2023-02-11T06:41:36;-2.90;54.80
24260;DHT22;12384;48.112;18.418;2023-02-11T06:44:05;-2.80;54.90
24260;DHT22;12384;48.112;18.418;2023-02-11T06:46:34;-2.70;55.10
24260;DHT22;12384;48.112;18.418;2023-02-11T06:49:02;-2.60;55.40
24260;DHT22;12384;48.112;18.418;2023-02-11T06:51:31;-2.50;55.30
24260;DHT22;12384;48.112;18.418;2023-02-11T06:53:59;-2.40;55.40
24260;DHT22;12384;48.112;18.418;2023-02-11T06:56:28;-2.30;55.20
24260;DHT22;12384;48.112;18.418;2023-02-11T06:58:57;-2.20;55.10
24260;DHT22;12384;48.112;18.418;2023-02-11T07:01:27;-2.10;55.00
24260;DHT22;12384;48.112;18.418;2023-02-11T07:03:55;-2.00;54.90
24260;DHT22;12384;48.112;18.418;2023-02-11T07:06:25;-1.90;54.80
24260;DHT22;12384;48.112;18.418;2023-02-11T07:08:55;-1.90;54.70
24260;DHT22;12384;48.112;18.418;2023-02-11T07:11:25;-1.80;54.60
24260;DHT22;12384;48.112;18.418;2023-02-11T07:13:59;-1.70;54.60
24260;DHT22;12384;48.112;18.418;2023-02-11T07:16:27;-1.70;54.50
24260;DHT22;12384;48.112;18.418;2023-02-11T07:18:56;-1.60;54.60
24260;DHT22;12384;48.112;18.418;2023-02-11T07:21:25;-1.50;55.20
24260;DHT22;12384;48.112;18.418;2023-02-11T07:23:53;-1.40;54.70
24260;DHT22;12384;48.112;18.418;2023-02-11T07:26:23;-1.30;54.80
24260;DHT22;12384;48.112;18.418;2023-02-11T07:28:52;-1.20;55.00
24260;DHT22;12384;48.112;18.418;2023-02-11T07:31:24;-1.10;55.00
24260;DHT22;12384;48.112;18.418;2023-02-11T07:33:55;-1.00;55.00
24260;DHT22;12384;48.112;18.418;2023-02-11T07:36:25;-0.80;55.00
24260;DHT22;12384;48.112;18.418;2023-02-11T07:38:54;-0.70;55.00
24260;DHT22;12384;48.112;18.418;2023-02-11T07:41:23;-0.60;55.00
24260;DHT22;12384;48.112;18.418;2023-02-11T07:43:52;-0.40;55.10
24260;DHT22;12384;48.112;18.418;2023-02-11T07:46:24;-0.30;55.20
24260;DHT22;12384;48.112;18.418;2023-02-11T07:48:53;-0.10;55.20
24260;DHT22;12384;48.112;18.418;2023-02-11T07:51:24;0.10;55.30
24260;DHT22;12384;48.112;18.418;2023-02-11T07:53:53;0.20;55.10
24260;DHT22;12384;48.112;18.418;2023-02-11T07:56:23;0.40;55.20
24260;DHT22;12384;48.112;18.418;2023-02-11T07:58:51;0.50;55.20
24260;DHT22;12384;48.112;18.418;2023-02-11T08:01:22;0.70;55.30
24260;DHT22;12384;48.112;18.418;2023-02-11T08:03:53;1.00;55.50
24260;DHT22;12384;48.112;18.418;2023-02-11T08:06:25;1.20;55.40
24260;DHT22;12384;48.112;18.418;2023-02-11T08:08:54;1.40;55.20
24260;DHT22;12384;48.112;18.418;2023-02-11T08:11:24;1.60;55.00
24260;DHT22;12384;48.112;18.418;2023-02-11T08:13:53;1.80;54.90
24260;DHT22;12384;48.112;18.418;2023-02-11T08:16:25;1.90;54.70
24260;DHT22;12384;48.112;18.418;2023-02-11T08:18:55;2.10;54.50
24260;DHT22;12384;48.112;18.418;2023-02-11T08:21:25;2.30;54.40
24260;DHT22;12384;48.112;18.418;2023-02-11T08:23:54;2.40;54.20
24260;DHT22;12384;48.112;18.418;2023-02-11T08:26:26;2.60;53.90
24260;DHT22;12384;48.112;18.418;2023-02-11T08:28:56;2.70;54.00
24260;DHT22;12384;48.112;18.418;2023-02-11T08:31:29;3.00;54.40
24260;DHT22;12384;48.112;18.418;2023-02-11T08:33:59;3.30;54.50
24260;DHT22;12384;48.112;18.418;2023-02-11T08:36:30;3.70;54.60
24260;DHT22;12384;48.112;18.418;2023-02-11T08:39:00;4.10;54.40
24260;DHT22;12384;48.112;18.418;2023-02-11T08:41:47;4.30;53.70
24260;DHT22;12384;48.112;18.418;2023-02-11T08:44:16;4.50;52.90
24260;DHT22;12384;48.112;18.418;2023-02-11T08:46:47;4.50;52.00
24260;DHT22;12384;48.112;18.418;2023-02-11T08:49:16;4.60;51.40
24260;DHT22;12384;48.112;18.418;2023-02-11T08:51:44;4.50;51.10
24260;DHT22;12384;48.112;18.418;2023-02-11T08:54:13;4.50;51.00
24260;DHT22;12384;48.112;18.418;2023-02-11T08:56:42;4.60;50.90
24260;DHT22;12384;48.112;18.418;2023-02-11T08:59:13;4.60;50.40
24260;DHT22;12384;48.112;18.418;2023-02-11T09:01:43;4.50;50.00
24260;DHT22;12384;48.112;18.418;2023-02-11T09:04:14;4.40;49.60
24260;DHT22;12384;48.112;18.418;2023-02-11T09:06:43;4.30;49.50
24260;DHT22;12384;48.112;18.418;2023-02-11T09:09:13;4.30;49.40
24260;DHT22;12384;48.112;18.418;2023-02-11T09:11:43;4.20;49.40
24260;DHT22;12384;48.112;18.418;2023-02-11T09:14:17;4.20;49.90
24260;DHT22;12384;48.112;18.418;2023-02-11T09:16:46;4.50;50.90
24260;DHT22;12384;48.112;18.418;2023-02-11T09:19:17;4.80;51.10
24260;DHT22;12384;48.112;18.418;2023-02-11T09:21:45;5.30;51.30
24260;DHT22;12384;48.112;18.418;2023-02-11T09:24:14;5.80;51.60
24260;DHT22;12384;48.112;18.418;2023-02-11T09:26:42;6.40;51.70
24260;DHT22;12384;48.112;18.418;2023-02-11T09:29:11;7.00;51.70
24260;DHT22;12384;48.112;18.418;2023-02-11T09:31:40;7.70;51.40
24260;DHT22;12384;48.112;18.418;2023-02-11T09:34:10;8.30;50.50
24260;DHT22;12384;48.112;18.418;2023-02-11T09:36:41;8.80;49.60
24260;DHT22;12384;48.112;18.418;2023-02-11T09:39:13;9.20;48.70
24260;DHT22;12384;48.112;18.418;2023-02-11T09:42:06;9.40;47.60
24260;DHT22;12384;48.112;18.418;2023-02-11T09:44:38;9.60;46.50
24260;DHT22;12384;48.112;18.418;2023-02-11T09:47:20;9.60;45.60
24260;DHT22;12384;48.112;18.418;2023-02-11T09:49:52;9.60;45.30
24260;DHT22;12384;48.112;18.418;2023-02-11T09:52:32;9.60;45.00
24260;DHT22;12384;48.112;18.418;2023-02-11T09:55:08;9.60;44.80
24260;DHT22;12384;48.112;18.418;2023-02-11T09:57:39;9.70;44.80
24260;DHT22;12384;48.112;18.418;2023-02-11T10:00:17;9.80;44.60
24260;DHT22;12384;48.112;18.418;2023-02-11T10:02:58;10.00;43.50
24260;DHT22;12384;48.112;18.418;2023-02-11T10:05:44;10.10;42.70
24260;DHT22;12384;48.112;18.418;2023-02-11T10:08:21;10.20;42.20
24260;DHT22;12384;48.112;18.418;2023-02-11T10:10:57;10.10;41.60
24260;DHT22;12384;48.112;18.418;2023-02-11T10:13:36;10.10;41.40
24260;DHT22;12384;48.112;18.418;2023-02-11T10:16:22;10.00;41.00
24260;DHT22;12384;48.112;18.418;2023-02-11T10:19:08;10.00;41.00
24260;DHT22;12384;48.112;18.418;2023-02-11T10:21:50;10.00;41.00
24260;DHT22;12384;48.112;18.418;2023-02-11T10:24:22;10.10;40.80
24260;DHT22;12384;48.112;18.418;2023-02-11T10:26:51;10.00;40.40
24260;DHT22;12384;48.112;18.418;2023-02-11T10:29:32;10.00;40.30
24260;DHT22;12384;48.112;18.418;2023-02-11T10:32:06;10.00;40.30
24260;DHT22;12384;48.112;18.418;2023-02-11T10:34:40;9.90;40.70
24260;DHT22;12384;48.112;18.418;2023-02-11T10:37:12;9.70;40.40
24260;DHT22;12384;48.112;18.418;2023-02-11T10:39:43;9.60;40.40
24260;DHT22;12384;48.112;18.418;2023-02-11T10:42:11;9.50;40.40
24260;DHT22;12384;48.112;18.418;2023-02-11T10:44:44;9.40;40.30
24260;DHT22;12384;48.112;18.418;2023-02-11T10:47:21;9.30;40.80
24260;DHT22;12384;48.112;18.418;2023-02-11T10:49:50;9.40;40.50
24260;DHT22;12384;48.112;18.418;2023-02-11T10:52:22;9.40;40.70
24260;DHT22;12384;48.112;18.418;2023-02-11T10:54:58;9.40;40.50
24260;DHT22;12384;48.112;18.418;2023-02-11T10:57:32;9.40;40.30
24260;DHT22;12384;48.112;18.418;2023-02-11T11:00:18;9.30;40.30
24260;DHT22;12384;48.112;18.418;2023-02-11T11:02:53;9.20;40.10
24260;DHT22;12384;48.112;18.418;2023-02-11T11:05:28;9.00;40.10
24260;DHT22;12384;48.112;18.418;2023-02-11T11:07:58;8.90;40.70
24260;DHT22;12384;48.112;18.418;2023-02-11T11:10:35;8.70;40.20
24260;DHT22;12384;48.112;18.418;2023-02-11T11:13:28;8.60;40.30
24260;DHT22;12384;48.112;18.418;2023-02-11T11:16:24;8.60;41.00
24260;DHT22;12384;48.112;18.418;2023-02-11T11:19:19;8.80;42.30
24260;DHT22;12384;48.112;18.418;2023-02-11T11:21:50;9.40;42.50
24260;DHT22;12384;48.112;18.418;2023-02-11T11:24:21;9.90;42.30
24260;DHT22;12384;48.112;18.418;2023-02-11T11:26:56;10.30;40.50
24260;DHT22;12384;48.112;18.418;2023-02-11T11:29:32;10.60;40.00
24260;DHT22;12384;48.112;18.418;2023-02-11T11:32:03;10.80;39.60
24260;DHT22;12384;48.112;18.418;2023-02-11T11:34:35;11.10;39.10
24260;DHT22;12384;48.112;18.418;2023-02-11T11:37:10;11.40;39.30
24260;DHT22;12384;48.112;18.418;2023-02-11T11:39:39;11.90;39.40
24260;DHT22;12384;48.112;18.418;2023-02-11T11:42:25;12.30;38.60
24260;DHT22;12384;48.112;18.418;2023-02-11T11:44:58;12.60;37.80
24260;DHT22;12384;48.112;18.418;2023-02-11T11:47:32;12.50;36.80
24260;DHT22;12384;48.112;18.418;2023-02-11T11:50:34;12.40;36.00
24260;DHT22;12384;48.112;18.418;2023-02-11T11:53:05;12.00;35.70
24260;DHT22;12384;48.112;18.418;2023-02-11T11:55:41;11.70;35.90
24260;DHT22;12384;48.112;18.418;2023-02-11T11:58:16;11.40;36.20
24260;DHT22;12384;48.112;18.418;2023-02-11T12:00:53;11.30;36.50
24260;DHT22;12384;48.112;18.418;2023-02-11T12:06:42;11.00;37.10
24260;DHT22;12384;48.112;18.418;2023-02-11T12:09:22;11.00;37.10
24260;DHT22;12384;48.112;18.418;2023-02-11T12:12:16;10.80;36.90
24260;DHT22;12384;48.112;18.418;2023-02-11T12:14:58;10.70;37.00
24260;DHT22;12384;48.112;18.418;2023-02-11T12:20:30;10.40;37.30
24260;DHT22;12384;48.112;18.418;2023-02-11T12:23:20;10.40;37.80
24260;DHT22;12384;48.112;18.418;2023-02-11T12:25:59;10.60;38.50
24260;DHT22;12384;48.112;18.418;2023-02-11T12:28:35;10.90;38.30
24260;DHT22;12384;48.112;18.418;2023-02-11T12:31:18;11.20;38.00
24260;DHT22;12384;48.112;18.418;2023-02-11T12:34:12;11.40;37.80
24260;DHT22;12384;48.112;18.418;2023-02-11T12:36:54;11.60;37.50
24260;DHT22;12384;48.112;18.418;2023-02-11T12:39:34;11.70;36.90
24260;DHT22;12384;48.112;18.418;2023-02-11T12:42:27;11.90;37.20
24260;DHT22;12384;48.112;18.418;2023-02-11T12:45:26;12.40;37.10
24260;DHT22;12384;48.112;18.418;2023-02-11T12:48:09;13.00;36.50
24260;DHT22;12384;48.112;18.418;2023-02-11T12:50:47;13.70;36.10
24260;DHT22;12384;48.112;18.418;2023-02-11T12:53:32;14.10;35.10
24260;DHT22;12384;48.112;18.418;2023-02-11T12:56:07;14.60;34.60
24260;DHT22;12384;48.112;18.418;2023-02-11T12:58:37;14.80;34.10
24260;DHT22;12384;48.112;18.418;2023-02-11T13:01:18;15.10;33.90
24260;DHT22;12384;48.112;18.418;2023-02-11T13:03:53;15.50;33.30
24260;DHT22;12384;48.112;18.418;2023-02-11T13:06:28;16.00;33.10
24260;DHT22;12384;48.112;18.418;2023-02-11T13:09:03;16.40;32.30
24260;DHT22;12384;48.112;18.418;2023-02-11T13:11:37;16.60;31.80
24260;DHT22;12384;48.112;18.418;2023-02-11T13:14:11;16.80;31.30
24260;DHT22;12384;48.112;18.418;2023-02-11T13:16:42;17.00;31.10
24260;DHT22;12384;48.112;18.418;2023-02-11T13:19:19;17.20;30.90
24260;DHT22;12384;48.112;18.418;2023-02-11T13:22:01;17.40;30.10
24260;DHT22;12384;48.112;18.418;2023-02-11T13:24:40;17.60;30.00
24260;DHT22;12384;48.112;18.418;2023-02-11T13:27:19;17.60;29.70
24260;DHT22;12384;48.112;18.418;2023-02-11T13:30:21;17.60;29.40
24260;DHT22;12384;48.112;18.418;2023-02-11T13:33:16;17.60;29.00
24260;DHT22;12384;48.112;18.418;2023-02-11T13:36:15;17.60;28.40
24260;DHT22;12384;48.112;18.418;2023-02-11T13:38:52;17.60;28.30
24260;DHT22;12384;48.112;18.418;2023-02-11T13:41:25;17.50;28.50
24260;DHT22;12384;48.112;18.418;2023-02-11T13:44:00;17.40;28.50
24260;DHT22;12384;48.112;18.418;2023-02-11T13:46:47;17.30;28.40
24260;DHT22;12384;48.112;18.418;2023-02-11T13:49:21;17.20;28.40
24260;DHT22;12384;48.112;18.418;2023-02-11T13:51:52;17.00;28.50
24260;DHT22;12384;48.112;18.418;2023-02-11T13:54:25;16.70;28.40
24260;DHT22;12384;48.112;18.418;2023-02-11T13:57:29;16.30;28.30
24260;DHT22;12384;48.112;18.418;2023-02-11T13:59:59;15.80;28.40
24260;DHT22;12384;48.112;18.418;2023-02-11T14:02:30;15.20;28.70
24260;DHT22;12384;48.112;18.418;2023-02-11T14:05:29;14.80;29.00
24260;DHT22;12384;48.112;18.418;2023-02-11T14:08:31;14.20;29.20
24260;DHT22;12384;48.112;18.418;2023-02-11T14:11:45;13.70;29.50
24260;DHT22;12384;48.112;18.418;2023-02-11T14:14:17;13.10;29.80
24260;DHT22;12384;48.112;18.418;2023-02-11T14:17:26;12.60;30.00
24260;DHT22;12384;48.112;18.418;2023-02-11T14:19:57;12.00;30.70
24260;DHT22;12384;48.112;18.418;2023-02-11T14:22:28;11.60;31.30
24260;DHT22;12384;48.112;18.418;2023-02-11T14:25:00;11.30;31.70
24260;DHT22;12384;48.112;18.418;2023-02-11T14:27:34;11.00;32.20
24260;DHT22;12384;48.112;18.418;2023-02-11T14:36:28;10.10;33.60
24260;DHT22;12384;48.112;18.418;2023-02-11T14:39:05;9.90;34.50
24260;DHT22;12384;48.112;18.418;2023-02-11T14:41:40;9.60;34.70
24260;DHT22;12384;48.112;18.418;2023-02-11T14:44:14;9.40;35.10
24260;DHT22;12384;48.112;18.418;2023-02-11T14:46:44;9.20;35.50
24260;DHT22;12384;48.112;18.418;2023-02-11T14:49:20;9.00;35.90
24260;DHT22;12384;48.112;18.418;2023-02-11T14:51:52;8.80;36.20
24260;DHT22;12384;48.112;18.418;2023-02-11T14:54:23;8.60;36.50
24260;DHT22;12384;48.112;18.418;2023-02-11T14:57:10;8.40;36.60
24260;DHT22;12384;48.112;18.418;2023-02-11T14:59:39;8.30;37.00
24260;DHT22;12384;48.112;18.418;2023-02-11T15:02:20;8.10;37.20
24260;DHT22;12384;48.112;18.418;2023-02-11T15:04:49;7.90;37.40
24260;DHT22;12384;48.112;18.418;2023-02-11T15:07:18;7.70;37.70
24260;DHT22;12384;48.112;18.418;2023-02-11T15:09:49;7.60;38.00
24260;DHT22;12384;48.112;18.418;2023-02-11T15:12:22;7.50;38.20
24260;DHT22;12384;48.112;18.418;2023-02-11T15:14:53;7.30;38.30
24260;DHT22;12384;48.112;18.418;2023-02-11T15:17:24;7.20;38.50
24260;DHT22;12384;48.112;18.418;2023-02-11T15:19:55;7.10;38.70
24260;DHT22;12384;48.112;18.418;2023-02-11T15:22:27;7.00;39.00
24260;DHT22;12384;48.112;18.418;2023-02-11T15:25:00;6.90;39.20
24260;DHT22;12384;48.112;18.418;2023-02-11T15:27:38;6.90;39.40
24260;DHT22;12384;48.112;18.418;2023-02-11T15:30:30;6.80;40.20
24260;DHT22;12384;48.112;18.418;2023-02-11T15:33:02;6.70;40.90
24260;DHT22;12384;48.112;18.418;2023-02-11T15:35:34;6.60;42.30
24260;DHT22;12384;48.112;18.418;2023-02-11T15:38:04;6.50;41.10
24260;DHT22;12384;48.112;18.418;2023-02-11T15:40:35;6.40;40.80
24260;DHT22;12384;48.112;18.418;2023-02-11T15:43:06;6.40;40.80
24260;DHT22;12384;48.112;18.418;2023-02-11T15:45:36;6.30;40.80
24260;DHT22;12384;48.112;18.418;2023-02-11T15:48:08;6.20;41.00
24260;DHT22;12384;48.112;18.418;2023-02-11T15:50:38;6.10;41.10
24260;DHT22;12384;48.112;18.418;2023-02-11T15:53:22;6.00;41.20
24260;DHT22;12384;48.112;18.418;2023-02-11T15:56:02;6.00;41.40
24260;DHT22;12384;48.112;18.418;2023-02-11T15:58:37;5.90;41.50
24260;DHT22;12384;48.112;18.418;2023-02-11T16:01:06;5.80;41.70
24260;DHT22;12384;48.112;18.418;2023-02-11T16:03:34;5.70;41.80
24260;DHT22;12384;48.112;18.418;2023-02-11T16:06:20;5.60;41.90
24260;DHT22;12384;48.112;18.418;2023-02-11T16:08:57;5.60;42.00
24260;DHT22;12384;48.112;18.418;2023-02-11T16:11:27;5.50;42.20
24260;DHT22;12384;48.112;18.418;2023-02-11T16:14:00;5.50;42.40
24260;DHT22;12384;48.112;18.418;2023-02-11T16:16:33;5.40;42.60
24260;DHT22;12384;48.112;18.418;2023-02-11T16:19:02;5.40;42.70